sensor_id;sensor_type;location;lat;lon;timestamp;P1;durP1;ratioP1;P2;durP2;ratioP2
66585;SDS011;53444;45.822;16.092;2024-03-08T00:01:35;24.95;;;11.38;;
66585;SDS011;53444;45.822;16.092;2024-03-08T00:04:02;24.23;;;11.73;;
66585;SDS011;53444;45.822;16.092;2024-03-08T00:06:30;24.00;;;12.07;;
66585;SDS011;53444;45.822;16.092;2024-03-08T00:08:57;28.63;;;13.43;;
66585;SDS011;53444;45.822;16.092;2024-03-08T00:11:24;30.25;;;13.68;;
66585;SDS011;53444;45.822;16.092;2024-03-08T00:13:51;33.25;;;15.65;;
66585;SDS011;53444;45.822;16.092;2024-03-08T00:16:18;31.03;;;14.40;;
66585;SDS011;53444;45.822;16.092;2024-03-08T00:18:45;36.50;;;14.90;;
66585;SDS011;53444;45.822;16.092;2024-03-08T00:21:12;26.42;;;13.00;;
66585;SDS011;53444;45.822;16.092;2024-03-08T00:23:41;27.77;;;12.60;;
66585;SDS011;53444;45.822;16.092;2024-03-08T00:26:08;23.42;;;11.50;;
66585;SDS011;53444;45.822;16.092;2024-03-08T00:28:35;25.07;;;11.10;;
66585;SDS011;53444;45.822;16.092;2024-03-08T00:31:02;20.83;;;10.20;;
66585;SDS011;53444;45.822;16.092;2024-03-08T00:33:28;23.63;;;11.02;;
66585;SDS011;53444;45.822;16.092;2024-03-08T00:35:54;19.13;;;9.65;;
66585;SDS011;53444;45.822;16.092;2024-03-08T00:38:21;19.42;;;9.48;;
66585;SDS011;53444;45.822;16.092;2024-03-08T00:40:49;19.83;;;9.57;;
66585;SDS011;53444;45.822;16.092;2024-03-08T00:43:15;18.48;;;9.45;;
66585;SDS011;53444;45.822;16.092;2024-03-08T00:45:42;20.60;;;10.50;;
66585;SDS011;53444;45.822;16.092;2024-03-08T00:48:09;21.20;;;8.98;;
66585;SDS011;53444;45.822;16.092;2024-03-08T00:50:36;22.48;;;10.50;;
66585;SDS011;53444;45.822;16.092;2024-03-08T00:53:02;19.40;;;8.47;;
66585;SDS011;53444;45.822;16.092;2024-03-08T00:55:29;21.80;;;9.57;;
66585;SDS011;53444;45.822;16.092;2024-03-08T00:57:57;21.08;;;9.30;;
66585;SDS011;53444;45.822;16.092;2024-03-08T01:00:24;17.40;;;8.73;;
66585;SDS011;53444;45.822;16.092;2024-03-08T01:02:51;17.70;;;8.98;;
66585;SDS011;53444;45.822;16.092;2024-03-08T01:05:17;18.33;;;8.40;;
66585;SDS011;53444;45.822;16.092;2024-03-08T01:07:44;20.15;;;9.27;;
66585;SDS011;53444;45.822;16.092;2024-03-08T01:10:11;19.42;;;8.77;;
66585;SDS011;53444;45.822;16.092;2024-03-08T01:12:38;17.50;;;9.13;;
66585;SDS011;53444;45.822;16.092;2024-03-08T01:15:07;18.83;;;8.52;;
66585;SDS011;53444;45.822;16.092;2024-03-08T01:17:35;16.53;;;8.30;;
66585;SDS011;53444;45.822;16.092;2024-03-08T01:20:02;19.00;;;8.20;;
66585;SDS011;53444;45.822;16.092;2024-03-08T01:22:29;17.30;;;8.55;;
66585;SDS011;53444;45.822;16.092;2024-03-08T01:24:55;18.35;;;8.20;;
66585;SDS011;53444;45.822;16.092;2024-03-08T01:27:22;18.67;;;8.57;;
66585;SDS011;53444;45.822;16.092;2024-03-08T01:29:49;19.03;;;8.70;;
66585;SDS011;53444;45.822;16.092;2024-03-08T01:32:17;16.13;;;8.50;;
66585;SDS011;53444;45.822;16.092;2024-03-08T01:34:44;18.05;;;8.75;;
66585;SDS011;53444;45.822;16.092;2024-03-08T01:37:11;20.83;;;9.20;;
66585;SDS011;53444;45.822;16.092;2024-03-08T01:39:39;22.48;;;10.50;;
66585;SDS011;53444;45.822;16.092;2024-03-08T01:42:06;24.20;;;11.37;;
66585;SDS011;53444;45.822;16.092;2024-03-08T01:44:33;22.85;;;11.23;;
66585;SDS011;53444;45.822;16.092;2024-03-08T01:47:00;25.95;;;11.45;;
66585;SDS011;53444;45.822;16.092;2024-03-08T01:49:28;26.60;;;11.63;;
66585;SDS011;53444;45.822;16.092;2024-03-08T01:51:55;22.25;;;11.18;;
66585;SDS011;53444;45.822;16.092;2024-03-08T01:54:22;24.83;;;11.87;;
66585;SDS011;53444;45.822;16.092;2024-03-08T01:56:50;26.50;;;11.57;;
66585;SDS011;53444;45.822;16.092;2024-03-08T01:59:18;24.65;;;11.10;;
66585;SDS011;53444;45.822;16.092;2024-03-08T02:01:45;25.52;;;11.63;;
66585;SDS011;53444;45.822;16.092;2024-03-08T02:04:12;26.30;;;11.40;;
66585;SDS011;53444;45.822;16.092;2024-03-08T02:06:41;25.40;;;11.20;;
66585;SDS011;53444;45.822;16.092;2024-03-08T02:09:07;21.77;;;11.13;;
66585;SDS011;53444;45.822;16.092;2024-03-08T02:11:35;25.77;;;11.80;;
66585;SDS011;53444;45.822;16.092;2024-03-08T02:14:02;27.92;;;12.30;;
66585;SDS011;53444;45.822;16.092;2024-03-08T02:16:31;23.15;;;11.27;;
66585;SDS011;53444;45.822;16.092;2024-03-08T02:18:57;23.43;;;11.10;;
66585;SDS011;53444;45.822;16.092;2024-03-08T02:21:25;25.40;;;11.85;;
66585;SDS011;53444;45.822;16.092;2024-03-08T02:23:52;26.45;;;12.00;;
66585;SDS011;53444;45.822;16.092;2024-03-08T02:26:20;21.75;;;10.23;;
66585;SDS011;53444;45.822;16.092;2024-03-08T02:28:46;22.42;;;10.50;;
66585;SDS011;53444;45.822;16.092;2024-03-08T02:31:14;23.03;;;11.30;;
66585;SDS011;53444;45.822;16.092;2024-03-08T02:33:41;24.90;;;12.07;;
66585;SDS011;53444;45.822;16.092;2024-03-08T02:36:08;30.42;;;12.98;;
66585;SDS011;53444;45.822;16.092;2024-03-08T02:38:36;24.63;;;12.18;;
66585;SDS011;53444;45.822;16.092;2024-03-08T02:41:03;25.02;;;12.38;;
66585;SDS011;53444;45.822;16.092;2024-03-08T02:43:29;28.73;;;13.63;;
66585;SDS011;53444;45.822;16.092;2024-03-08T02:45:56;28.70;;;13.52;;
66585;SDS011;53444;45.822;16.092;2024-03-08T02:48:23;32.70;;;13.68;;
66585;SDS011;53444;45.822;16.092;2024-03-08T02:50:49;28.00;;;12.25;;
66585;SDS011;53444;45.822;16.092;2024-03-08T02:53:16;29.27;;;13.35;;
66585;SDS011;53444;45.822;16.092;2024-03-08T02:55:45;27.60;;;12.40;;
66585;SDS011;53444;45.822;16.092;2024-03-08T02:58:12;30.13;;;12.73;;
66585;SDS011;53444;45.822;16.092;2024-03-08T03:00:39;31.98;;;13.68;;
66585;SDS011;53444;45.822;16.092;2024-03-08T03:03:06;28.83;;;13.02;;
66585;SDS011;53444;45.822;16.092;2024-03-08T03:05:33;26.65;;;12.40;;
66585;SDS011;53444;45.822;16.092;2024-03-08T03:08:00;25.80;;;12.57;;
66585;SDS011;53444;45.822;16.092;2024-03-08T03:10:26;28.67;;;12.07;;
66585;SDS011;53444;45.822;16.092;2024-03-08T03:12:54;25.50;;;11.93;;
66585;SDS011;53444;45.822;16.092;2024-03-08T03:15:21;24.65;;;12.82;;
66585;SDS011;53444;45.822;16.092;2024-03-08T03:17:48;26.95;;;13.73;;
66585;SDS011;53444;45.822;16.092;2024-03-08T03:20:16;29.93;;;13.67;;
66585;SDS011;53444;45.822;16.092;2024-03-08T03:22:51;29.58;;;13.40;;
66585;SDS011;53444;45.822;16.092;2024-03-08T03:25:18;26.65;;;13.15;;
66585;SDS011;53444;45.822;16.092;2024-03-08T03:27:50;25.08;;;12.15;;
66585;SDS011;53444;45.822;16.092;2024-03-08T03:30:18;27.58;;;12.02;;
66585;SDS011;53444;45.822;16.092;2024-03-08T03:32:47;27.27;;;12.07;;
66585;SDS011;53444;45.822;16.092;2024-03-08T03:35:16;25.67;;;11.75;;
66585;SDS011;53444;45.822;16.092;2024-03-08T03:37:43;24.58;;;11.68;;
66585;SDS011;53444;45.822;16.092;2024-03-08T03:40:16;28.92;;;12.07;;
66585;SDS011;53444;45.822;16.092;2024-03-08T03:42:43;22.25;;;10.98;;
66585;SDS011;53444;45.822;16.092;2024-03-08T03:45:10;23.27;;;10.90;;
66585;SDS011;53444;45.822;16.092;2024-03-08T03:47:42;25.15;;;10.77;;
66585;SDS011;53444;45.822;16.092;2024-03-08T03:50:09;24.17;;;10.57;;
66585;SDS011;53444;45.822;16.092;2024-03-08T03:52:35;26.77;;;10.90;;
66585;SDS011;53444;45.822;16.092;2024-03-08T03:55:02;25.40;;;11.20;;
66585;SDS011;53444;45.822;16.092;2024-03-08T03:57:29;30.97;;;12.57;;
66585;SDS011;53444;45.822;16.092;2024-03-08T03:59:56;28.27;;;11.70;;
66585;SDS011;53444;45.822;16.092;2024-03-08T04:02:23;25.80;;;11.40;;
66585;SDS011;53444;45.822;16.092;2024-03-08T04:04:52;26.90;;;11.70;;
66585;SDS011;53444;45.822;16.092;2024-03-08T04:07:20;25.58;;;11.50;;
66585;SDS011;53444;45.822;16.092;2024-03-08T04:09:47;25.93;;;10.93;;
66585;SDS011;53444;45.822;16.092;2024-03-08T04:12:14;25.40;;;11.98;;
66585;SDS011;53444;45.822;16.092;2024-03-08T04:14:42;24.73;;;11.35;;
66585;SDS011;53444;45.822;16.092;2024-03-08T04:17:09;27.73;;;12.27;;
66585;SDS011;53444;45.822;16.092;2024-03-08T04:19:37;25.00;;;11.00;;
66585;SDS011;53444;45.822;16.092;2024-03-08T04:22:06;25.23;;;11.13;;
66585;SDS011;53444;45.822;16.092;2024-03-08T04:24:33;26.77;;;11.82;;
66585;SDS011;53444;45.822;16.092;2024-03-08T04:27:00;23.92;;;11.55;;
66585;SDS011;53444;45.822;16.092;2024-03-08T04:29:27;26.65;;;11.25;;
66585;SDS011;53444;45.822;16.092;2024-03-08T04:31:53;25.27;;;12.40;;
66585;SDS011;53444;45.822;16.092;2024-03-08T04:34:20;27.80;;;11.57;;
66585;SDS011;53444;45.822;16.092;2024-03-08T04:36:47;26.23;;;11.65;;
66585;SDS011;53444;45.822;16.092;2024-03-08T04:39:15;25.55;;;12.30;;
66585;SDS011;53444;45.822;16.092;2024-03-08T04:41:43;29.15;;;11.82;;
66585;SDS011;53444;45.822;16.092;2024-03-08T04:44:10;27.45;;;12.77;;
66585;SDS011;53444;45.822;16.092;2024-03-08T04:46:37;27.43;;;12.03;;
66585;SDS011;53444;45.822;16.092;2024-03-08T04:49:04;28.48;;;11.57;;
66585;SDS011;53444;45.822;16.092;2024-03-08T04:51:32;27.67;;;11.57;;
66585;SDS011;53444;45.822;16.092;2024-03-08T04:53:59;26.15;;;11.65;;
66585;SDS011;53444;45.822;16.092;2024-03-08T04:56:27;22.63;;;11.82;;
66585;SDS011;53444;45.822;16.092;2024-03-08T04:58:53;24.23;;;11.77;;
66585;SDS011;53444;45.822;16.092;2024-03-08T05:01:20;26.85;;;11.30;;
66585;SDS011;53444;45.822;16.092;2024-03-08T05:03:46;26.25;;;11.95;;
66585;SDS011;53444;45.822;16.092;2024-03-08T05:06:15;25.83;;;12.02;;
66585;SDS011;53444;45.822;16.092;2024-03-08T05:08:47;30.27;;;13.57;;
66585;SDS011;53444;45.822;16.092;2024-03-08T05:11:15;29.40;;;12.43;;
66585;SDS011;53444;45.822;16.092;2024-03-08T05:13:43;25.30;;;12.00;;
66585;SDS011;53444;45.822;16.092;2024-03-08T05:16:10;25.10;;;11.63;;
66585;SDS011;53444;45.822;16.092;2024-03-08T05:18:37;25.65;;;12.38;;
66585;SDS011;53444;45.822;16.092;2024-03-08T05:21:04;28.40;;;12.63;;
66585;SDS011;53444;45.822;16.092;2024-03-08T05:23:30;27.50;;;12.43;;
66585;SDS011;53444;45.822;16.092;2024-03-08T05:25:57;29.35;;;13.27;;
66585;SDS011;53444;45.822;16.092;2024-03-08T05:28:23;25.65;;;13.02;;
66585;SDS011;53444;45.822;16.092;2024-03-08T05:30:51;28.45;;;12.50;;
66585;SDS011;53444;45.822;16.092;2024-03-08T05:33:21;21.58;;;11.38;;
66585;SDS011;53444;45.822;16.092;2024-03-08T05:35:49;26.37;;;12.27;;
66585;SDS011;53444;45.822;16.092;2024-03-08T05:38:19;26.70;;;12.68;;
66585;SDS011;53444;45.822;16.092;2024-03-08T05:40:46;26.60;;;12.43;;
66585;SDS011;53444;45.822;16.092;2024-03-08T05:43:16;27.45;;;12.65;;
66585;SDS011;53444;45.822;16.092;2024-03-08T05:45:44;28.80;;;12.77;;
66585;SDS011;53444;45.822;16.092;2024-03-08T05:48:13;27.47;;;12.77;;
66585;SDS011;53444;45.822;16.092;2024-03-08T05:50:39;28.38;;;12.13;;
66585;SDS011;53444;45.822;16.092;2024-03-08T05:53:07;27.30;;;13.25;;
66585;SDS011;53444;45.822;16.092;2024-03-08T05:55:34;27.38;;;12.60;;
66585;SDS011;53444;45.822;16.092;2024-03-08T05:58:01;29.77;;;13.05;;
66585;SDS011;53444;45.822;16.092;2024-03-08T06:00:28;28.30;;;12.20;;
66585;SDS011;53444;45.822;16.092;2024-03-08T06:02:56;28.42;;;11.65;;
66585;SDS011;53444;45.822;16.092;2024-03-08T06:05:25;25.00;;;12.35;;
66585;SDS011;53444;45.822;16.092;2024-03-08T06:07:52;28.50;;;13.00;;
66585;SDS011;53444;45.822;16.092;2024-03-08T06:10:19;29.45;;;12.63;;
66585;SDS011;53444;45.822;16.092;2024-03-08T06:12:46;29.97;;;13.30;;
66585;SDS011;53444;45.822;16.092;2024-03-08T06:15:12;28.65;;;13.55;;
66585;SDS011;53444;45.822;16.092;2024-03-08T06:17:40;27.05;;;13.73;;
66585;SDS011;53444;45.822;16.092;2024-03-08T06:20:17;29.90;;;13.55;;
66585;SDS011;53444;45.822;16.092;2024-03-08T06:22:49;30.77;;;14.05;;
66585;SDS011;53444;45.822;16.092;2024-03-08T06:25:18;29.83;;;13.30;;
66585;SDS011;53444;45.822;16.092;2024-03-08T06:27:46;31.10;;;13.23;;
66585;SDS011;53444;45.822;16.092;2024-03-08T06:30:13;29.48;;;13.73;;
66585;SDS011;53444;45.822;16.092;2024-03-08T06:32:41;27.35;;;13.68;;
66585;SDS011;53444;45.822;16.092;2024-03-08T06:35:08;31.40;;;13.52;;
66585;SDS011;53444;45.822;16.092;2024-03-08T06:37:35;29.73;;;12.50;;
66585;SDS011;53444;45.822;16.092;2024-03-08T06:40:04;31.45;;;13.10;;
66585;SDS011;53444;45.822;16.092;2024-03-08T06:42:33;30.38;;;13.57;;
66585;SDS011;53444;45.822;16.092;2024-03-08T06:45:00;29.50;;;12.82;;
66585;SDS011;53444;45.822;16.092;2024-03-08T06:47:29;30.33;;;13.88;;
66585;SDS011;53444;45.822;16.092;2024-03-08T06:49:56;31.53;;;14.07;;
66585;SDS011;53444;45.822;16.092;2024-03-08T06:52:23;32.53;;;14.80;;
66585;SDS011;53444;45.822;16.092;2024-03-08T06:54:50;30.65;;;14.20;;
66585;SDS011;53444;45.822;16.092;2024-03-08T06:57:18;33.15;;;14.02;;
66585;SDS011;53444;45.822;16.092;2024-03-08T06:59:47;30.70;;;14.73;;
66585;SDS011;53444;45.822;16.092;2024-03-08T07:02:13;31.97;;;14.60;;
66585;SDS011;53444;45.822;16.092;2024-03-08T07:04:40;30.38;;;14.02;;
66585;SDS011;53444;45.822;16.092;2024-03-08T07:07:07;32.35;;;14.55;;
66585;SDS011;53444;45.822;16.092;2024-03-08T07:09:34;27.55;;;13.35;;
66585;SDS011;53444;45.822;16.092;2024-03-08T07:12:01;30.75;;;14.18;;
66585;SDS011;53444;45.822;16.092;2024-03-08T07:14:30;28.67;;;13.80;;
66585;SDS011;53444;45.822;16.092;2024-03-08T07:16:57;32.22;;;14.60;;
66585;SDS011;53444;45.822;16.092;2024-03-08T07:19:23;33.05;;;15.32;;
66585;SDS011;53444;45.822;16.092;2024-03-08T07:21:50;32.70;;;15.60;;
66585;SDS011;53444;45.822;16.092;2024-03-08T07:24:17;30.42;;;15.60;;
66585;SDS011;53444;45.822;16.092;2024-03-08T07:27:04;31.23;;;13.77;;
66585;SDS011;53444;45.822;16.092;2024-03-08T07:29:32;34.92;;;15.02;;
66585;SDS011;53444;45.822;16.092;2024-03-08T07:31:59;29.40;;;13.80;;
66585;SDS011;53444;45.822;16.092;2024-03-08T07:34:40;30.83;;;13.38;;
66585;SDS011;53444;45.822;16.092;2024-03-08T07:37:07;30.27;;;14.43;;
66585;SDS011;53444;45.822;16.092;2024-03-08T07:39:36;31.20;;;13.70;;
66585;SDS011;53444;45.822;16.092;2024-03-08T07:42:04;31.15;;;13.85;;
66585;SDS011;53444;45.822;16.092;2024-03-08T07:44:30;32.08;;;14.93;;
66585;SDS011;53444;45.822;16.092;2024-03-08T07:46:59;31.20;;;14.60;;
66585;SDS011;53444;45.822;16.092;2024-03-08T07:49:26;30.80;;;15.07;;
66585;SDS011;53444;45.822;16.092;2024-03-08T07:51:53;34.03;;;15.20;;
66585;SDS011;53444;45.822;16.092;2024-03-08T07:54:19;45.38;;;19.13;;
66585;SDS011;53444;45.822;16.092;2024-03-08T07:56:46;44.00;;;20.33;;
66585;SDS011;53444;45.822;16.092;2024-03-08T07:59:13;41.03;;;18.92;;
66585;SDS011;53444;45.822;16.092;2024-03-08T08:01:39;39.15;;;16.95;;
66585;SDS011;53444;45.822;16.092;2024-03-08T08:04:08;36.87;;;15.57;;
66585;SDS011;53444;45.822;16.092;2024-03-08T08:06:37;36.15;;;16.15;;
66585;SDS011;53444;45.822;16.092;2024-03-08T08:09:06;31.27;;;15.57;;
66585;SDS011;53444;45.822;16.092;2024-03-08T08:11:35;32.53;;;15.23;;
66585;SDS011;53444;45.822;16.092;2024-03-08T08:14:01;36.60;;;15.70;;
66585;SDS011;53444;45.822;16.092;2024-03-08T08:16:28;36.13;;;15.90;;
66585;SDS011;53444;45.822;16.092;2024-03-08T08:18:55;30.92;;;15.10;;
66585;SDS011;53444;45.822;16.092;2024-03-08T08:21:22;32.95;;;16.10;;
66585;SDS011;53444;45.822;16.092;2024-03-08T08:23:51;34.50;;;16.25;;
66585;SDS011;53444;45.822;16.092;2024-03-08T08:26:17;34.33;;;15.60;;
66585;SDS011;53444;45.822;16.092;2024-03-08T08:28:46;34.90;;;15.13;;
66585;SDS011;53444;45.822;16.092;2024-03-08T08:31:14;31.88;;;14.30;;
66585;SDS011;53444;45.822;16.092;2024-03-08T08:33:41;35.88;;;15.65;;
66585;SDS011;53444;45.822;16.092;2024-03-08T08:36:08;36.70;;;15.88;;
66585;SDS011;53444;45.822;16.092;2024-03-08T08:38:36;29.60;;;14.85;;
66585;SDS011;53444;45.822;16.092;2024-03-08T08:41:03;32.73;;;15.50;;
66585;SDS011;53444;45.822;16.092;2024-03-08T08:43:31;33.45;;;14.95;;
66585;SDS011;53444;45.822;16.092;2024-03-08T08:45:58;34.00;;;15.15;;
66585;SDS011;53444;45.822;16.092;2024-03-08T08:48:26;34.70;;;15.55;;
66585;SDS011;53444;45.822;16.092;2024-03-08T08:50:55;35.40;;;17.58;;
66585;SDS011;53444;45.822;16.092;2024-03-08T08:53:22;36.67;;;15.57;;
66585;SDS011;53444;45.822;16.092;2024-03-08T08:55:50;30.52;;;15.27;;
66585;SDS011;53444;45.822;16.092;2024-03-08T08:58:18;31.33;;;15.07;;
66585;SDS011;53444;45.822;16.092;2024-03-08T09:00:44;30.40;;;14.93;;
66585;SDS011;53444;45.822;16.092;2024-03-08T09:03:11;32.55;;;14.88;;
66585;SDS011;53444;45.822;16.092;2024-03-08T09:05:38;33.13;;;14.03;;
66585;SDS011;53444;45.822;16.092;2024-03-08T09:08:07;30.05;;;15.05;;
66585;SDS011;53444;45.822;16.092;2024-03-08T09:10:34;37.60;;;15.65;;
66585;SDS011;53444;45.822;16.092;2024-03-08T09:13:02;33.10;;;15.20;;
66585;SDS011;53444;45.822;16.092;2024-03-08T09:15:30;30.80;;;14.98;;
66585;SDS011;53444;45.822;16.092;2024-03-08T09:17:56;32.00;;;15.63;;
66585;SDS011;53444;45.822;16.092;2024-03-08T09:20:24;32.60;;;14.73;;
66585;SDS011;53444;45.822;16.092;2024-03-08T09:22:50;32.05;;;15.15;;
66585;SDS011;53444;45.822;16.092;2024-03-08T09:25:17;38.28;;;15.68;;
66585;SDS011;53444;45.822;16.092;2024-03-08T09:27:44;41.40;;;18.90;;
66585;SDS011;53444;45.822;16.092;2024-03-08T09:30:13;72.27;;;33.33;;
66585;SDS011;53444;45.822;16.092;2024-03-08T09:32:40;61.65;;;27.80;;
66585;SDS011;53444;45.822;16.092;2024-03-08T09:35:08;42.65;;;19.13;;
66585;SDS011;53444;45.822;16.092;2024-03-08T09:37:36;37.30;;;16.88;;
66585;SDS011;53444;45.822;16.092;2024-03-08T09:40:03;36.90;;;16.63;;
66585;SDS011;53444;45.822;16.092;2024-03-08T09:42:34;35.97;;;15.60;;
66585;SDS011;53444;45.822;16.092;2024-03-08T09:45:03;33.03;;;15.55;;
66585;SDS011;53444;45.822;16.092;2024-03-08T09:47:32;35.67;;;15.75;;
66585;SDS011;53444;45.822;16.092;2024-03-08T09:50:04;40.33;;;17.70;;
66585;SDS011;53444;45.822;16.092;2024-03-08T09:52:34;34.25;;;16.65;;
66585;SDS011;53444;45.822;16.092;2024-03-08T09:55:02;34.43;;;15.37;;
66585;SDS011;53444;45.822;16.092;2024-03-08T09:57:31;36.65;;;16.48;;
66585;SDS011;53444;45.822;16.092;2024-03-08T09:59:58;35.30;;;16.35;;
66585;SDS011;53444;45.822;16.092;2024-03-08T10:02:25;37.40;;;15.70;;
66585;SDS011;53444;45.822;16.092;2024-03-08T10:04:53;34.95;;;16.58;;
66585;SDS011;53444;45.822;16.092;2024-03-08T10:07:19;32.53;;;15.23;;
66585;SDS011;53444;45.822;16.092;2024-03-08T10:09:46;34.90;;;16.27;;
66585;SDS011;53444;45.822;16.092;2024-03-08T10:12:15;42.03;;;17.75;;
66585;SDS011;53444;45.822;16.092;2024-03-08T10:14:42;37.42;;;16.88;;
66585;SDS011;53444;45.822;16.092;2024-03-08T10:17:08;44.13;;;17.38;;
66585;SDS011;53444;45.822;16.092;2024-03-08T10:19:35;44.27;;;16.10;;
66585;SDS011;53444;45.822;16.092;2024-03-08T10:22:03;30.80;;;15.07;;
66585;SDS011;53444;45.822;16.092;2024-03-08T10:24:31;36.58;;;16.63;;
66585;SDS011;53444;45.822;16.092;2024-03-08T10:26:59;42.13;;;16.40;;
66585;SDS011;53444;45.822;16.092;2024-03-08T10:29:26;33.88;;;16.08;;
66585;SDS011;53444;45.822;16.092;2024-03-08T10:31:53;35.80;;;16.77;;
66585;SDS011;53444;45.822;16.092;2024-03-08T10:34:21;35.72;;;16.35;;
66585;SDS011;53444;45.822;16.092;2024-03-08T10:36:48;37.85;;;16.20;;
66585;SDS011;53444;45.822;16.092;2024-03-08T10:39:20;36.33;;;16.23;;
66585;SDS011;53444;45.822;16.092;2024-03-08T10:41:51;31.05;;;15.52;;
66585;SDS011;53444;45.822;16.092;2024-03-08T10:44:26;35.03;;;15.57;;
66585;SDS011;53444;45.822;16.092;2024-03-08T10:47:15;31.98;;;14.25;;
66585;SDS011;53444;45.822;16.092;2024-03-08T10:49:50;35.72;;;16.17;;
66585;SDS011;53444;45.822;16.092;2024-03-08T10:52:20;35.90;;;16.05;;
66585;SDS011;53444;45.822;16.092;2024-03-08T10:54:49;33.35;;;15.85;;
66585;SDS011;53444;45.822;16.092;2024-03-08T10:57:19;32.97;;;15.90;;
66585;SDS011;53444;45.822;16.092;2024-03-08T10:59:47;34.80;;;16.95;;
66585;SDS011;53444;45.822;16.092;2024-03-08T11:02:15;36.65;;;16.35;;
66585;SDS011;53444;45.822;16.092;2024-03-08T11:04:45;33.63;;;16.42;;
66585;SDS011;53444;45.822;16.092;2024-03-08T11:07:12;36.03;;;15.32;;
66585;SDS011;53444;45.822;16.092;2024-03-08T11:09:42;30.57;;;15.13;;
66585;SDS011;53444;45.822;16.092;2024-03-08T11:12:22;32.10;;;16.02;;
66585;SDS011;53444;45.822;16.092;2024-03-08T11:14:55;33.35;;;16.08;;
66585;SDS011;53444;45.822;16.092;2024-03-08T11:17:26;36.63;;;17.85;;
66585;SDS011;53444;45.822;16.092;2024-03-08T11:20:08;38.38;;;18.40;;
66585;SDS011;53444;45.822;16.092;2024-03-08T11:22:40;35.70;;;16.10;;
66585;SDS011;53444;45.822;16.092;2024-03-08T11:25:10;34.15;;;16.05;;
66585;SDS011;53444;45.822;16.092;2024-03-08T11:28:07;34.50;;;15.55;;
66585;SDS011;53444;45.822;16.092;2024-03-08T11:30:44;36.95;;;17.40;;
66585;SDS011;53444;45.822;16.092;2024-03-08T11:33:13;36.85;;;17.50;;
66585;SDS011;53444;45.822;16.092;2024-03-08T11:35:41;37.47;;;17.60;;
66585;SDS011;53444;45.822;16.092;2024-03-08T11:38:11;31.63;;;14.85;;
66585;SDS011;53444;45.822;16.092;2024-03-08T11:40:39;36.88;;;16.77;;
66585;SDS011;53444;45.822;16.092;2024-03-08T11:43:08;32.97;;;15.23;;
66585;SDS011;53444;45.822;16.092;2024-03-08T11:45:36;35.38;;;16.30;;
66585;SDS011;53444;45.822;16.092;2024-03-08T11:48:03;30.17;;;14.70;;
66585;SDS011;53444;45.822;16.092;2024-03-08T11:50:30;31.08;;;14.30;;
66585;SDS011;53444;45.822;16.092;2024-03-08T11:53:02;33.83;;;16.55;;
66585;SDS011;53444;45.822;16.092;2024-03-08T11:55:30;33.05;;;15.30;;
66585;SDS011;53444;45.822;16.092;2024-03-08T11:58:01;31.10;;;14.82;;
66585;SDS011;53444;45.822;16.092;2024-03-08T12:00:30;33.90;;;14.17;;
66585;SDS011;53444;45.822;16.092;2024-03-08T12:03:03;32.55;;;14.70;;
66585;SDS011;53444;45.822;16.092;2024-03-08T12:05:31;34.42;;;15.77;;
66585;SDS011;53444;45.822;16.092;2024-03-08T12:07:58;32.72;;;15.98;;
66585;SDS011;53444;45.822;16.092;2024-03-08T12:10:25;34.80;;;15.90;;
66585;SDS011;53444;45.822;16.092;2024-03-08T12:12:53;30.47;;;14.60;;
66585;SDS011;53444;45.822;16.092;2024-03-08T12:15:21;32.28;;;15.30;;
66585;SDS011;53444;45.822;16.092;2024-03-08T12:17:51;32.15;;;13.75;;
66585;SDS011;53444;45.822;16.092;2024-03-08T12:20:19;27.95;;;13.48;;
66585;SDS011;53444;45.822;16.092;2024-03-08T12:22:48;30.73;;;13.35;;
66585;SDS011;53444;45.822;16.092;2024-03-08T12:25:17;30.50;;;13.80;;
66585;SDS011;53444;45.822;16.092;2024-03-08T12:27:44;31.77;;;14.93;;
66585;SDS011;53444;45.822;16.092;2024-03-08T12:30:18;28.83;;;14.95;;
66585;SDS011;53444;45.822;16.092;2024-03-08T12:32:48;32.28;;;14.45;;
66585;SDS011;53444;45.822;16.092;2024-03-08T12:35:20;34.55;;;14.80;;
66585;SDS011;53444;45.822;16.092;2024-03-08T12:37:48;34.20;;;15.27;;
66585;SDS011;53444;45.822;16.092;2024-03-08T12:40:16;33.45;;;15.43;;
66585;SDS011;53444;45.822;16.092;2024-03-08T12:42:43;29.38;;;14.40;;
66585;SDS011;53444;45.822;16.092;2024-03-08T12:45:12;30.05;;;14.77;;
66585;SDS011;53444;45.822;16.092;2024-03-08T12:47:39;31.83;;;14.02;;
66585;SDS011;53444;45.822;16.092;2024-03-08T12:50:08;31.37;;;14.00;;
66585;SDS011;53444;45.822;16.092;2024-03-08T12:52:36;33.67;;;14.20;;
66585;SDS011;53444;45.822;16.092;2024-03-08T12:55:03;26.90;;;13.65;;
66585;SDS011;53444;45.822;16.092;2024-03-08T12:57:32;32.60;;;14.18;;
66585;SDS011;53444;45.822;16.092;2024-03-08T12:59:59;32.65;;;13.98;;
66585;SDS011;53444;45.822;16.092;2024-03-08T13:02:27;30.17;;;14.53;;
66585;SDS011;53444;45.822;16.092;2024-03-08T13:04:55;29.63;;;14.07;;
66585;SDS011;53444;45.822;16.092;2024-03-08T13:07:24;33.00;;;14.73;;
66585;SDS011;53444;45.822;16.092;2024-03-08T13:09:52;31.27;;;15.35;;
66585;SDS011;53444;45.822;16.092;2024-03-08T13:12:19;28.98;;;13.52;;
66585;SDS011;53444;45.822;16.092;2024-03-08T13:14:46;31.60;;;14.13;;
66585;SDS011;53444;45.822;16.092;2024-03-08T13:17:13;27.33;;;13.90;;
66585;SDS011;53444;45.822;16.092;2024-03-08T13:19:40;32.95;;;15.07;;
66585;SDS011;53444;45.822;16.092;2024-03-08T13:22:07;34.85;;;15.50;;
66585;SDS011;53444;45.822;16.092;2024-03-08T13:24:38;29.08;;;14.80;;
66585;SDS011;53444;45.822;16.092;2024-03-08T13:27:06;34.30;;;14.70;;
66585;SDS011;53444;45.822;16.092;2024-03-08T13:29:44;32.47;;;14.52;;
66585;SDS011;53444;45.822;16.092;2024-03-08T13:32:12;29.80;;;13.55;;
66585;SDS011;53444;45.822;16.092;2024-03-08T13:34:40;35.97;;;15.25;;
66585;SDS011;53444;45.822;16.092;2024-03-08T13:37:07;30.13;;;14.25;;
66585;SDS011;53444;45.822;16.092;2024-03-08T13:39:35;29.40;;;14.40;;
66585;SDS011;53444;45.822;16.092;2024-03-08T13:42:07;30.60;;;14.50;;
66585;SDS011;53444;45.822;16.092;2024-03-08T13:44:35;35.38;;;15.80;;
66585;SDS011;53444;45.822;16.092;2024-03-08T13:47:02;31.17;;;14.38;;
66585;SDS011;53444;45.822;16.092;2024-03-08T13:49:30;31.13;;;14.32;;
66585;SDS011;53444;45.822;16.092;2024-03-08T13:51:57;29.33;;;13.40;;
66585;SDS011;53444;45.822;16.092;2024-03-08T13:54:24;29.15;;;13.57;;
66585;SDS011;53444;45.822;16.092;2024-03-08T13:56:52;30.98;;;15.55;;
66585;SDS011;53444;45.822;16.092;2024-03-08T13:59:21;30.27;;;13.73;;
66585;SDS011;53444;45.822;16.092;2024-03-08T14:01:48;27.88;;;14.20;;
66585;SDS011;53444;45.822;16.092;2024-03-08T14:04:15;29.73;;;13.20;;
66585;SDS011;53444;45.822;16.092;2024-03-08T14:06:42;31.48;;;13.45;;
66585;SDS011;53444;45.822;16.092;2024-03-08T14:09:10;32.13;;;14.63;;
66585;SDS011;53444;45.822;16.092;2024-03-08T14:11:41;30.10;;;14.25;;
66585;SDS011;53444;45.822;16.092;2024-03-08T14:14:09;30.38;;;13.52;;